sensor_id;sensor_type;location;lat;lon;timestamp;temperature;humidity
1994;DHT22;998;49.906;10.908;2023-11-21T00:01:57;9.00;99.90
1994;DHT22;998;49.906;10.908;2023-11-21T00:04:24;9.50;99.90
1994;DHT22;998;49.906;10.908;2023-11-21T00:06:53;9.50;99.90
1994;DHT22;998;49.906;10.908;2023-11-21T00:09:20;9.30;99.90
1994;DHT22;998;49.906;10.908;2023-11-21T00:11:47;9.40;99.90
1994;DHT22;998;49.906;10.908;2023-11-21T00:14:14;9.60;99.90
1994;DHT22;998;49.906;10.908;2023-11-21T00:16:42;9.50;99.90
1994;DHT22;998;49.906;10.908;2023-11-21T00:19:09;9.50;99.90
1994;DHT22;998;49.906;10.908;2023-11-21T00:21:36;9.50;99.90
1994;DHT22;998;49.906;10.908;2023-11-21T00:24:03;9.30;99.90
1994;DHT22;998;49.906;10.908;2023-11-21T00:26:30;9.50;99.90
1994;DHT22;998;49.906;10.908;2023-11-21T00:31:30;9.50;99.90
1994;DHT22;998;49.906;10.908;2023-11-21T00:33:59;9.50;99.90
1994;DHT22;998;49.906;10.908;2023-11-21T00:36:26;9.40;99.90
1994;DHT22;998;49.906;10.908;2023-11-21T00:38:53;9.00;99.90
1994;DHT22;998;49.906;10.908;2023-11-21T00:41:21;9.20;99.90
1994;DHT22;998;49.906;10.908;2023-11-21T00:43:48;9.30;99.90
1994;DHT22;998;49.906;10.908;2023-11-21T00:46:15;9.70;99.90
1994;DHT22;998;49.906;10.908;2023-11-21T00:48:41;9.40;99.90
1994;DHT22;998;49.906;10.908;2023-11-21T00:51:09;9.40;99.90
1994;DHT22;998;49.906;10.908;2023-11-21T00:53:36;9.40;99.90
1994;DHT22;998;49.906;10.908;2023-11-21T00:56:03;9.40;99.90
1994;DHT22;998;49.906;10.908;2023-11-21T00:58:30;9.40;99.90
1994;DHT22;998;49.906;10.908;2023-11-21T01:00:57;10.50;99.90
1994;DHT22;998;49.906;10.908;2023-11-21T01:03:24;9.30;99.90
1994;DHT22;998;49.906;10.908;2023-11-21T01:05:51;9.40;99.90
1994;DHT22;998;49.906;10.908;2023-11-21T01:08:20;9.00;99.90
1994;DHT22;998;49.906;10.908;2023-11-21T01:10:48;9.10;99.90
1994;DHT22;998;49.906;10.908;2023-11-21T01:13:16;11.00;99.90
1994;DHT22;998;49.906;10.908;2023-11-21T01:15:44;9.40;99.90
1994;DHT22;998;49.906;10.908;2023-11-21T01:18:12;8.90;99.90
1994;DHT22;998;49.906;10.908;2023-11-21T01:20:39;9.30;99.90
1994;DHT22;998;49.906;10.908;2023-11-21T01:23:06;9.30;99.90
1994;DHT22;998;49.906;10.908;2023-11-21T01:25:35;9.40;99.90
1994;DHT22;998;49.906;10.908;2023-11-21T01:28:03;9.30;99.90
1994;DHT22;998;49.906;10.908;2023-11-21T01:30:31;9.30;99.90
1994;DHT22;998;49.906;10.908;2023-11-21T01:32:59;9.30;99.90
1994;DHT22;998;49.906;10.908;2023-11-21T01:35:26;9.30;99.90
1994;DHT22;998;49.906;10.908;2023-11-21T01:37:53;9.30;99.90
1994;DHT22;998;49.906;10.908;2023-11-21T01:40:21;9.30;99.90
1994;DHT22;998;49.906;10.908;2023-11-21T01:42:50;9.30;99.90
1994;DHT22;998;49.906;10.908;2023-11-21T01:45:17;9.30;99.90
1994;DHT22;998;49.906;10.908;2023-11-21T01:47:45;9.30;99.90
1994;DHT22;998;49.906;10.908;2023-11-21T01:50:15;9.30;99.90
1994;DHT22;998;49.906;10.908;2023-11-21T01:52:45;9.30;99.90
1994;DHT22;998;49.906;10.908;2023-11-21T01:55:15;9.20;99.90
1994;DHT22;998;49.906;10.908;2023-11-21T01:57:44;9.30;99.90
1994;DHT22;998;49.906;10.908;2023-11-21T02:00:13;9.30;99.90
1994;DHT22;998;49.906;10.908;2023-11-21T02:02:45;9.30;99.90
1994;DHT22;998;49.906;10.908;2023-11-21T02:05:14;9.30;99.90
1994;DHT22;998;49.906;10.908;2023-11-21T02:07:44;9.30;99.90
1994;DHT22;998;49.906;10.908;2023-11-21T02:10:14;9.30;99.90
1994;DHT22;998;49.906;10.908;2023-11-21T02:12:42;9.30;99.90
1994;DHT22;998;49.906;10.908;2023-11-21T02:15:11;9.30;99.90
1994;DHT22;998;49.906;10.908;2023-11-21T02:17:47;9.20;99.90
1994;DHT22;998;49.906;10.908;2023-11-21T02:20:17;9.30;99.90
1994;DHT22;998;49.906;10.908;2023-11-21T02:22:50;9.20;99.90
1994;DHT22;998;49.906;10.908;2023-11-21T02:25:18;9.30;99.90
1994;DHT22;998;49.906;10.908;2023-11-21T02:27:46;9.20;99.90
1994;DHT22;998;49.906;10.908;2023-11-21T02:30:15;9.20;99.90
1994;DHT22;998;49.906;10.908;2023-11-21T02:32:42;9.20;99.90
1994;DHT22;998;49.906;10.908;2023-11-21T02:35:09;9.20;99.90
1994;DHT22;998;49.906;10.908;2023-11-21T02:37:38;9.20;99.90
1994;DHT22;998;49.906;10.908;2023-11-21T02:40:10;9.20;99.90
1994;DHT22;998;49.906;10.908;2023-11-21T02:42:39;9.20;99.90
1994;DHT22;998;49.906;10.908;2023-11-21T02:45:07;9.20;99.90
1994;DHT22;998;49.906;10.908;2023-11-21T02:47:36;9.20;99.90
1994;DHT22;998;49.906;10.908;2023-11-21T02:50:04;9.10;99.90
1994;DHT22;998;49.906;10.908;2023-11-21T02:52:33;9.10;99.90
1994;DHT22;998;49.906;10.908;2023-11-21T02:55:01;9.10;99.90
1994;DHT22;998;49.906;10.908;2023-11-21T02:57:30;9.10;99.90
1994;DHT22;998;49.906;10.908;2023-11-21T02:59:57;9.10;99.90
1994;DHT22;998;49.906;10.908;2023-11-21T03:02:25;9.10;99.90
1994;DHT22;998;49.906;10.908;2023-11-21T03:04:52;9.10;99.90
1994;DHT22;998;49.906;10.908;2023-11-21T03:07:20;9.20;99.90
1994;DHT22;998;49.906;10.908;2023-11-21T03:09:47;9.10;99.90
1994;DHT22;998;49.906;10.908;2023-11-21T03:12:15;9.20;99.90
1994;DHT22;998;49.906;10.908;2023-11-21T03:14:44;9.20;99.90
1994;DHT22;998;49.906;10.908;2023-11-21T03:17:11;9.20;99.90
1994;DHT22;998;49.906;10.908;2023-11-21T03:19:41;9.20;99.90
1994;DHT22;998;49.906;10.908;2023-11-21T03:22:09;9.20;99.90
1994;DHT22;998;49.906;10.908;2023-11-21T03:24:37;9.20;99.90
1994;DHT22;998;49.906;10.908;2023-11-21T03:27:05;9.20;99.90
1994;DHT22;998;49.906;10.908;2023-11-21T03:29:32;9.20;99.90
1994;DHT22;998;49.906;10.908;2023-11-21T03:32:01;9.20;99.90
1994;DHT22;998;49.906;10.908;2023-11-21T03:34:28;9.20;99.90
1994;DHT22;998;49.906;10.908;2023-11-21T03:36:56;9.20;99.90
1994;DHT22;998;49.906;10.908;2023-11-21T03:39:24;9.20;99.90
1994;DHT22;998;49.906;10.908;2023-11-21T03:41:52;9.20;99.90
1994;DHT22;998;49.906;10.908;2023-11-21T03:44:19;9.20;99.90
1994;DHT22;998;49.906;10.908;2023-11-21T03:46:48;9.10;99.90
1994;DHT22;998;49.906;10.908;2023-11-21T03:49:16;9.20;99.90
1994;DHT22;998;49.906;10.908;2023-11-21T03:51:44;9.20;99.90
1994;DHT22;998;49.906;10.908;2023-11-21T03:54:10;9.20;99.90
1994;DHT22;998;49.906;10.908;2023-11-21T03:56:37;9.20;99.90
1994;DHT22;998;49.906;10.908;2023-11-21T03:59:05;9.20;99.90
1994;DHT22;998;49.906;10.908;2023-11-21T04:01:32;9.20;99.90
1994;DHT22;998;49.906;10.908;2023-11-21T04:04:00;9.20;99.90
1994;DHT22;998;49.906;10.908;2023-11-21T04:06:29;9.30;99.90
1994;DHT22;998;49.906;10.908;2023-11-21T04:08:58;9.20;99.90
1994;DHT22;998;49.906;10.908;2023-11-21T04:11:26;9.20;99.90
1994;DHT22;998;49.906;10.908;2023-11-21T04:13:55;9.20;99.90
1994;DHT22;998;49.906;10.908;2023-11-21T04:16:23;9.30;99.90
1994;DHT22;998;49.906;10.908;2023-11-21T04:18:50;9.20;99.90
1994;DHT22;998;49.906;10.908;2023-11-21T04:21:18;9.20;99.90
1994;DHT22;998;49.906;10.908;2023-11-21T04:23:46;9.20;99.90
1994;DHT22;998;49.906;10.908;2023-11-21T04:26:14;9.20;99.90
1994;DHT22;998;49.906;10.908;2023-11-21T04:28:41;9.20;99.90
1994;DHT22;998;49.906;10.908;2023-11-21T04:31:09;9.20;99.90
1994;DHT22;998;49.906;10.908;2023-11-21T04:33:36;9.20;99.90
1994;DHT22;998;49.906;10.908;2023-11-21T04:36:04;9.20;99.90
1994;DHT22;998;49.906;10.908;2023-11-21T04:38:32;9.20;99.90
1994;DHT22;998;49.906;10.908;2023-11-21T04:41:01;9.20;99.90
1994;DHT22;998;49.906;10.908;2023-11-21T04:43:29;9.20;99.90
1994;DHT22;998;49.906;10.908;2023-11-21T04:45:56;9.20;99.90
1994;DHT22;998;49.906;10.908;2023-11-21T04:48:24;9.30;99.90
1994;DHT22;998;49.906;10.908;2023-11-21T04:50:51;9.30;99.90
1994;DHT22;998;49.906;10.908;2023-11-21T04:53:18;9.20;99.90
1994;DHT22;998;49.906;10.908;2023-11-21T04:55:46;9.20;99.90
1994;DHT22;998;49.906;10.908;2023-11-21T04:58:16;9.20;99.90
1994;DHT22;998;49.906;10.908;2023-11-21T05:00:43;9.20;99.90
1994;DHT22;998;49.906;10.908;2023-11-21T05:03:10;9.20;99.90
1994;DHT22;998;49.906;10.908;2023-11-21T05:05:38;9.30;99.90
1994;DHT22;998;49.906;10.908;2023-11-21T05:08:05;9.20;99.90
1994;DHT22;998;49.906;10.908;2023-11-21T05:10:33;9.20;99.90
1994;DHT22;998;49.906;10.908;2023-11-21T05:13:04;9.20;99.90
1994;DHT22;998;49.906;10.908;2023-11-21T05:15:37;9.30;99.90
1994;DHT22;998;49.906;10.908;2023-11-21T05:18:05;9.20;99.90
1994;DHT22;998;49.906;10.908;2023-11-21T05:20:32;9.20;99.90
1994;DHT22;998;49.906;10.908;2023-11-21T05:22:59;9.30;99.90
1994;DHT22;998;49.906;10.908;2023-11-21T05:25:27;9.30;99.90
1994;DHT22;998;49.906;10.908;2023-11-21T05:27:54;9.30;99.90
1994;DHT22;998;49.906;10.908;2023-11-21T05:30:22;9.30;99.90
1994;DHT22;998;49.906;10.908;2023-11-21T05:32:51;9.30;99.90
1994;DHT22;998;49.906;10.908;2023-11-21T05:35:18;9.20;99.90
1994;DHT22;998;49.906;10.908;2023-11-21T05:37:46;9.20;99.90
1994;DHT22;998;49.906;10.908;2023-11-21T05:40:13;9.20;99.90
1994;DHT22;998;49.906;10.908;2023-11-21T05:42:41;9.20;99.90
1994;DHT22;998;49.906;10.908;2023-11-21T05:45:09;9.20;99.90
1994;DHT22;998;49.906;10.908;2023-11-21T05:47:38;9.20;99.90
1994;DHT22;998;49.906;10.908;2023-11-21T05:50:08;9.20;99.90
1994;DHT22;998;49.906;10.908;2023-11-21T05:52:41;9.20;99.90
1994;DHT22;998;49.906;10.908;2023-11-21T05:55:08;9.20;99.90
1994;DHT22;998;49.906;10.908;2023-11-21T05:57:37;9.30;99.90
1994;DHT22;998;49.906;10.908;2023-11-21T06:00:06;9.20;99.90
1994;DHT22;998;49.906;10.908;2023-11-21T06:02:38;9.20;99.90
1994;DHT22;998;49.906;10.908;2023-11-21T06:05:07;9.20;99.90
1994;DHT22;998;49.906;10.908;2023-11-21T06:07:35;9.20;99.90
1994;DHT22;998;49.906;10.908;2023-11-21T06:10:03;9.20;99.90
1994;DHT22;998;49.906;10.908;2023-11-21T06:12:32;9.20;99.90
1994;DHT22;998;49.906;10.908;2023-11-21T06:15:02;9.30;99.90
1994;DHT22;998;49.906;10.908;2023-11-21T06:17:31;9.20;99.90
1994;DHT22;998;49.906;10.908;2023-11-21T06:19:58;9.20;99.90
1994;DHT22;998;49.906;10.908;2023-11-21T06:22:27;9.20;99.90
1994;DHT22;998;49.906;10.908;2023-11-21T06:24:56;9.20;99.90
1994;DHT22;998;49.906;10.908;2023-11-21T06:27:24;9.20;99.90
1994;DHT22;998;49.906;10.908;2023-11-21T06:29:51;9.30;99.90
1994;DHT22;998;49.906;10.908;2023-11-21T06:32:18;9.30;99.90
1994;DHT22;998;49.906;10.908;2023-11-21T06:34:48;9.20;99.90
1994;DHT22;998;49.906;10.908;2023-11-21T06:37:16;9.20;99.90
1994;DHT22;998;49.906;10.908;2023-11-21T06:39:45;9.20;99.90
1994;DHT22;998;49.906;10.908;2023-11-21T06:42:12;9.20;99.90
1994;DHT22;998;49.906;10.908;2023-11-21T06:44:40;9.20;99.90
1994;DHT22;998;49.906;10.908;2023-11-21T06:47:09;9.20;99.90
1994;DHT22;998;49.906;10.908;2023-11-21T06:49:36;9.20;99.90
1994;DHT22;998;49.906;10.908;2023-11-21T06:52:04;9.20;99.90
1994;DHT22;998;49.906;10.908;2023-11-21T06:54:32;9.20;99.90
1994;DHT22;998;49.906;10.908;2023-11-21T06:57:01;9.20;99.90
1994;DHT22;998;49.906;10.908;2023-11-21T06:59:28;9.20;99.90
1994;DHT22;998;49.906;10.908;2023-11-21T07:01:56;9.20;99.90
1994;DHT22;998;49.906;10.908;2023-11-21T07:04:24;9.20;99.90
1994;DHT22;998;49.906;10.908;2023-11-21T07:06:51;9.20;99.90
1994;DHT22;998;49.906;10.908;2023-11-21T07:09:18;9.20;99.90
1994;DHT22;998;49.906;10.908;2023-11-21T07:11:47;9.20;99.90
1994;DHT22;998;49.906;10.908;2023-11-21T07:14:15;9.20;99.90
1994;DHT22;998;49.906;10.908;2023-11-21T07:16:45;9.20;99.90
1994;DHT22;998;49.906;10.908;2023-11-21T07:19:12;9.20;99.90
1994;DHT22;998;49.906;10.908;2023-11-21T07:21:40;9.20;99.90
1994;DHT22;998;49.906;10.908;2023-11-21T07:24:08;9.20;99.90
1994;DHT22;998;49.906;10.908;2023-11-21T07:26:37;9.20;99.90
1994;DHT22;998;49.906;10.908;2023-11-21T07:29:04;9.20;99.90
1994;DHT22;998;49.906;10.908;2023-11-21T07:31:33;9.30;99.90
1994;DHT22;998;49.906;10.908;2023-11-21T07:34:01;9.30;99.90
1994;DHT22;998;49.906;10.908;2023-11-21T07:36:28;9.30;99.90
1994;DHT22;998;49.906;10.908;2023-11-21T07:38:56;9.30;99.90
1994;DHT22;998;49.906;10.908;2023-11-21T07:41:23;9.30;99.90
1994;DHT22;998;49.906;10.908;2023-11-21T07:43:50;8.80;99.90
1994;DHT22;998;49.906;10.908;2023-11-21T07:46:18;9.30;99.90
1994;DHT22;998;49.906;10.908;2023-11-21T07:48:47;9.30;99.90
1994;DHT22;998;49.906;10.908;2023-11-21T07:51:14;9.30;99.90
1994;DHT22;998;49.906;10.908;2023-11-21T07:53:42;9.20;99.90
1994;DHT22;998;49.906;10.908;2023-11-21T07:56:09;9.30;99.90
1994;DHT22;998;49.906;10.908;2023-11-21T07:58:37;9.30;99.90
1994;DHT22;998;49.906;10.908;2023-11-21T08:01:04;9.30;99.90
1994;DHT22;998;49.906;10.908;2023-11-21T08:03:32;9.30;99.90
1994;DHT22;998;49.906;10.908;2023-11-21T08:06:01;9.30;99.90
1994;DHT22;998;49.906;10.908;2023-11-21T08:08:31;9.30;99.90
1994;DHT22;998;49.906;10.908;2023-11-21T08:10:59;9.40;99.90
1994;DHT22;998;49.906;10.908;2023-11-21T08:13:28;9.40;99.90
1994;DHT22;998;49.906;10.908;2023-11-21T08:15:57;9.40;99.90
1994;DHT22;998;49.906;10.908;2023-11-21T08:18:28;9.40;99.90
1994;DHT22;998;49.906;10.908;2023-11-21T08:20:56;9.40;99.90
1994;DHT22;998;49.906;10.908;2023-11-21T08:23:25;9.40;99.90
1994;DHT22;998;49.906;10.908;2023-11-21T08:25:52;9.40;99.90
1994;DHT22;998;49.906;10.908;2023-11-21T08:28:20;9.50;99.90
1994;DHT22;998;49.906;10.908;2023-11-21T08:30:49;9.50;99.90
1994;DHT22;998;49.906;10.908;2023-11-21T08:33:16;9.40;99.90
1994;DHT22;998;49.906;10.908;2023-11-21T08:35:44;9.50;99.90
1994;DHT22;998;49.906;10.908;2023-11-21T08:38:12;9.50;99.90
1994;DHT22;998;49.906;10.908;2023-11-21T08:40:41;9.50;99.90
1994;DHT22;998;49.906;10.908;2023-11-21T08:43:08;9.50;99.90
1994;DHT22;998;49.906;10.908;2023-11-21T08:45:38;9.50;99.90
1994;DHT22;998;49.906;10.908;2023-11-21T08:48:05;9.50;99.90
1994;DHT22;998;49.906;10.908;2023-11-21T08:50:33;9.50;99.90
1994;DHT22;998;49.906;10.908;2023-11-21T08:53:00;9.50;99.90
1994;DHT22;998;49.906;10.908;2023-11-21T08:55:28;9.50;99.90
1994;DHT22;998;49.906;10.908;2023-11-21T08:57:57;9.40;99.90
1994;DHT22;998;49.906;10.908;2023-11-21T09:00:24;9.40;99.90
1994;DHT22;998;49.906;10.908;2023-11-21T09:02:51;9.40;99.90
1994;DHT22;998;49.906;10.908;2023-11-21T09:05:19;9.50;99.90
1994;DHT22;998;49.906;10.908;2023-11-21T09:07:46;9.50;99.90
1994;DHT22;998;49.906;10.908;2023-11-21T09:10:14;9.50;99.90
1994;DHT22;998;49.906;10.908;2023-11-21T09:12:41;9.50;99.90
1994;DHT22;998;49.906;10.908;2023-11-21T09:15:11;9.50;99.90
1994;DHT22;998;49.906;10.908;2023-11-21T09:17:39;9.50;99.90
1994;DHT22;998;49.906;10.908;2023-11-21T09:20:09;9.50;99.90
1994;DHT22;998;49.906;10.908;2023-11-21T09:22:37;9.50;99.90
1994;DHT22;998;49.906;10.908;2023-11-21T09:25:05;9.50;99.90
1994;DHT22;998;49.906;10.908;2023-11-21T09:27:34;9.50;99.90
1994;DHT22;998;49.906;10.908;2023-11-21T09:30:02;9.50;99.90
1994;DHT22;998;49.906;10.908;2023-11-21T09:32:32;9.50;99.90
1994;DHT22;998;49.906;10.908;2023-11-21T09:35:00;9.60;99.90
1994;DHT22;998;49.906;10.908;2023-11-21T09:37:29;9.60;99.90
1994;DHT22;998;49.906;10.908;2023-11-21T09:39:57;9.70;99.90
1994;DHT22;998;49.906;10.908;2023-11-21T09:42:28;9.70;99.90
1994;DHT22;998;49.906;10.908;2023-11-21T09:45:00;9.70;99.90
1994;DHT22;998;49.906;10.908;2023-11-21T09:47:32;9.70;99.90
1994;DHT22;998;49.906;10.908;2023-11-21T09:50:02;9.70;99.90
1994;DHT22;998;49.906;10.908;2023-11-21T09:52:29;9.70;99.90
1994;DHT22;998;49.906;10.908;2023-11-21T09:54:58;9.70;99.90
1994;DHT22;998;49.906;10.908;2023-11-21T09:57:28;9.80;99.90
1994;DHT22;998;49.906;10.908;2023-11-21T09:59:56;9.80;99.90
1994;DHT22;998;49.906;10.908;2023-11-21T10:02:26;9.80;99.90
1994;DHT22;998;49.906;10.908;2023-11-21T10:04:56;9.90;99.90
1994;DHT22;998;49.906;10.908;2023-11-21T10:07:23;9.90;99.90
1994;DHT22;998;49.906;10.908;2023-11-21T10:09:51;9.90;99.90
1994;DHT22;998;49.906;10.908;2023-11-21T10:12:20;10.00;99.90
1994;DHT22;998;49.906;10.908;2023-11-21T10:14:48;10.00;99.90
1994;DHT22;998;49.906;10.908;2023-11-21T10:17:18;10.00;99.90
1994;DHT22;998;49.906;10.908;2023-11-21T10:19:47;10.00;99.90
1994;DHT22;998;49.906;10.908;2023-11-21T10:22:16;10.00;99.90
1994;DHT22;998;49.906;10.908;2023-11-21T10:24:45;9.80;99.90
1994;DHT22;998;49.906;10.908;2023-11-21T10:27:12;10.10;99.90
1994;DHT22;998;49.906;10.908;2023-11-21T10:29:40;10.10;99.90
1994;DHT22;998;49.906;10.908;2023-11-21T10:32:07;10.20;99.90
1994;DHT22;998;49.906;10.908;2023-11-21T10:34:35;10.20;99.90
1994;DHT22;998;49.906;10.908;2023-11-21T10:37:11;10.20;99.90
1994;DHT22;998;49.906;10.908;2023-11-21T10:39:40;10.30;99.90
1994;DHT22;998;49.906;10.908;2023-11-21T10:42:09;10.50;99.90
1994;DHT22;998;49.906;10.908;2023-11-21T10:44:37;10.50;99.90
1994;DHT22;998;49.906;10.908;2023-11-21T10:47:04;10.50;99.90
1994;DHT22;998;49.906;10.908;2023-11-21T10:49:31;10.50;99.90
1994;DHT22;998;49.906;10.908;2023-11-21T10:51:59;10.40;99.90
1994;DHT22;998;49.906;10.908;2023-11-21T10:54:26;10.40;99.90
1994;DHT22;998;49.906;10.908;2023-11-21T10:56:57;10.50;99.90
1994;DHT22;998;49.906;10.908;2023-11-21T10:59:29;10.50;99.90
1994;DHT22;998;49.906;10.908;2023-11-21T11:01:58;10.50;99.90
1994;DHT22;998;49.906;10.908;2023-11-21T11:04:28;10.80;99.90
1994;DHT22;998;49.906;10.908;2023-11-21T11:06:57;11.60;99.90
1994;DHT22;998;49.906;10.908;2023-11-21T11:09:25;12.30;99.90
1994;DHT22;998;49.906;10.908;2023-11-21T11:11:54;12.70;99.90
1994;DHT22;998;49.906;10.908;2023-11-21T11:14:23;13.20;99.90
1994;DHT22;998;49.906;10.908;2023-11-21T11:16:53;13.30;99.90
1994;DHT22;998;49.906;10.908;2023-11-21T11:19:21;13.50;99.90
1994;DHT22;998;49.906;10.908;2023-11-21T11:21:56;13.60;99.90
1994;DHT22;998;49.906;10.908;2023-11-21T11:24:40;13.30;99.90
1994;DHT22;998;49.906;10.908;2023-11-21T11:27:29;13.40;99.90
1994;DHT22;998;49.906;10.908;2023-11-21T11:30:07;13.70;99.90
1994;DHT22;998;49.906;10.908;2023-11-21T11:32:47;13.30;99.90
1994;DHT22;998;49.906;10.908;2023-11-21T11:35:26;12.90;99.90
1994;DHT22;998;49.906;10.908;2023-11-21T11:37:57;13.20;99.90
1994;DHT22;998;49.906;10.908;2023-11-21T11:40:38;13.40;99.90
1994;DHT22;998;49.906;10.908;2023-11-21T11:43:08;13.70;99.90
1994;DHT22;998;49.906;10.908;2023-11-21T11:45:35;13.80;99.90
1994;DHT22;998;49.906;10.908;2023-11-21T11:48:07;14.20;99.90
1994;DHT22;998;49.906;10.908;2023-11-21T11:50:35;14.30;99.90
1994;DHT22;998;49.906;10.908;2023-11-21T11:53:15;13.90;99.90
1994;DHT22;998;49.906;10.908;2023-11-21T11:55:44;13.90;99.90
1994;DHT22;998;49.906;10.908;2023-11-21T11:58:13;14.20;99.90
1994;DHT22;998;49.906;10.908;2023-11-21T12:00:42;14.50;99.90
1994;DHT22;998;49.906;10.908;2023-11-21T12:03:11;14.40;99.90
1994;DHT22;998;49.906;10.908;2023-11-21T12:05:40;14.40;99.90
1994;DHT22;998;49.906;10.908;2023-11-21T12:08:11;14.50;99.90
1994;DHT22;998;49.906;10.908;2023-11-21T12:10:39;14.30;99.90
1994;DHT22;998;49.906;10.908;2023-11-21T12:13:07;14.20;99.90
1994;DHT22;998;49.906;10.908;2023-11-21T12:15:37;14.10;99.90
1994;DHT22;998;49.906;10.908;2023-11-21T12:18:06;14.00;99.90
1994;DHT22;998;49.906;10.908;2023-11-21T12:20:33;14.20;99.90
1994;DHT22;998;49.906;10.908;2023-11-21T12:23:05;14.50;99.90
1994;DHT22;998;49.906;10.908;2023-11-21T12:25:33;14.60;99.90
1994;DHT22;998;49.906;10.908;2023-11-21T12:28:02;14.60;99.90
1994;DHT22;998;49.906;10.908;2023-11-21T12:30:34;14.50;99.90
1994;DHT22;998;49.906;10.908;2023-11-21T12:33:05;14.40;99.90
1994;DHT22;998;49.906;10.908;2023-11-21T12:35:33;14.30;99.90
1994;DHT22;998;49.906;10.908;2023-11-21T12:38:02;14.20;99.90
1994;DHT22;998;49.906;10.908;2023-11-21T12:40:30;14.20;99.90
1994;DHT22;998;49.906;10.908;2023-11-21T12:43:00;14.10;99.90
1994;DHT22;998;49.906;10.908;2023-11-21T12:45:30;13.70;99.90
1994;DHT22;998;49.906;10.908;2023-11-21T12:47:59;13.40;99.90
1994;DHT22;998;49.906;10.908;2023-11-21T12:50:31;13.30;99.90
1994;DHT22;998;49.906;10.908;2023-11-21T12:53:00;13.40;99.90
1994;DHT22;998;49.906;10.908;2023-11-21T12:55:31;13.40;99.90
1994;DHT22;998;49.906;10.908;2023-11-21T12:58:01;13.50;99.90
1994;DHT22;998;49.906;10.908;2023-11-21T13:00:36;13.60;99.90
1994;DHT22;998;49.906;10.908;2023-11-21T13:03:05;13.40;99.90
1994;DHT22;998;49.906;10.908;2023-11-21T13:05:35;13.30;99.90
1994;DHT22;998;49.906;10.908;2023-11-21T13:08:05;13.30;99.90
1994;DHT22;998;49.906;10.908;2023-11-21T13:10:36;13.20;99.90
1994;DHT22;998;49.906;10.908;2023-11-21T13:13:06;13.10;99.90
1994;DHT22;998;49.906;10.908;2023-11-21T13:15:36;13.00;99.90
1994;DHT22;998;49.906;10.908;2023-11-21T13:18:06;12.90;99.90
1994;DHT22;998;49.906;10.908;2023-11-21T13:20:38;12.80;99.90
1994;DHT22;998;49.906;10.908;2023-11-21T13:23:08;12.70;99.90
1994;DHT22;998;49.906;10.908;2023-11-21T13:25:38;12.60;99.90
1994;DHT22;998;49.906;10.908;2023-11-21T13:28:07;12.40;99.90
1994;DHT22;998;49.906;10.908;2023-11-21T13:30:35;12.20;99.90
1994;DHT22;998;49.906;10.908;2023-11-21T13:33:05;12.20;99.90
1994;DHT22;998;49.906;10.908;2023-11-21T13:35:34;12.20;99.90
1994;DHT22;998;49.906;10.908;2023-11-21T13:38:06;12.20;99.90
1994;DHT22;998;49.906;10.908;2023-11-21T13:40:35;12.20;99.90
1994;DHT22;998;49.906;10.908;2023-11-21T13:43:09;12.10;99.90
1994;DHT22;998;49.906;10.908;2023-11-21T13:45:36;12.00;99.90
1994;DHT22;998;49.906;10.908;2023-11-21T13:48:05;11.90;99.90
1994;DHT22;998;49.906;10.908;2023-11-21T13:50:35;11.90;99.90
1994;DHT22;998;49.906;10.908;2023-11-21T13:53:04;11.80;99.90
1994;DHT22;998;49.906;10.908;2023-11-21T13:55:41;11.80;99.90
1994;DHT22;998;49.906;10.908;2023-11-21T13:58:08;11.70;99.90
1994;DHT22;998;49.906;10.908;2023-11-21T14:00:41;11.70;99.90
1994;DHT22;998;49.906;10.908;2023-11-21T14:03:11;11.70;99.90
1994;DHT22;998;49.906;10.908;2023-11-21T14:05:47;11.80;99.90
1994;DHT22;998;49.906;10.908;2023-11-21T14:08:19;11.80;99.90
1994;DHT22;998;49.906;10.908;2023-11-21T14:10:47;11.60;99.90
1994;DHT22;998;49.906;10.908;2023-11-21T14:13:23;11.60;99.90
1994;DHT22;998;49.906;10.908;2023-11-21T14:15:51;11.60;99.90
1994;DHT22;998;49.906;10.908;2023-11-21T14:18:23;11.50;99.90
1994;DHT22;998;49.906;10.908;2023-11-21T14:20:56;11.40;99.90
1994;DHT22;998;49.906;10.908;2023-11-21T14:23:25;11.40;99.90
1994;DHT22;998;49.906;10.908;2023-11-21T14:25:52;11.30;99.90
1994;DHT22;998;49.906;10.908;2023-11-21T14:28:19;11.20;99.90
1994;DHT22;998;49.906;10.908;2023-11-21T14:30:46;11.20;99.90
1994;DHT22;998;49.906;10.908;2023-11-21T14:33:13;11.20;99.90
1994;DHT22;998;49.906;10.908;2023-11-21T14:35:42;11.20;99.90
1994;DHT22;998;49.906;10.908;2023-11-21T14:38:10;11.20;99.90
1994;DHT22;998;49.906;10.908;2023-11-21T14:40:41;11.20;99.90
1994;DHT22;998;49.906;10.908;2023-11-21T14:43:08;11.20;99.90
1994;DHT22;998;49.906;10.908;2023-11-21T14:45:36;11.30;99.90
1994;DHT22;998;49.906;10.908;2023-11-21T14:48:04;11.30;99.90
1994;DHT22;998;49.906;10.908;2023-11-21T14:50:42;11.30;99.90
1994;DHT22;998;49.906;10.908;2023-11-21T14:53:36;11.30;99.90
1994;DHT22;998;49.906;10.908;2023-11-21T14:56:11;11.20;99.90
1994;DHT22;998;49.906;10.908;2023-11-21T14:58:47;11.20;99.90
1994;DHT22;998;49.906;10.908;2023-11-21T15:01:14;11.20;99.90
1994;DHT22;998;49.906;10.908;2023-11-21T15:03:50;11.10;99.90
1994;DHT22;998;49.906;10.908;2023-11-21T15:06:17;11.10;99.90
1994;DHT22;998;49.906;10.908;2023-11-21T15:08:53;11.10;99.90
1994;DHT22;998;49.906;10.908;2023-11-21T15:11:42;11.00;99.90
1994;DHT22;998;49.906;10.908;2023-11-21T15:14:10;10.90;99.90
1994;DHT22;998;49.906;10.908;2023-11-21T15:16:41;10.90;99.90
1994;DHT22;998;49.906;10.908;2023-11-21T15:19:13;10.90;99.90
1994;DHT22;998;49.906;10.908;2023-11-21T15:21:44;10.90;99.90
1994;DHT22;998;49.906;10.908;2023-11-21T15:24:11;10.90;99.90
1994;DHT22;998;49.906;10.908;2023-11-21T15:26:39;10.90;99.90
1994;DHT22;998;49.906;10.908;2023-11-21T15:29:08;10.80;99.90
1994;DHT22;998;49.906;10.908;2023-11-21T15:31:36;10.80;99.90
1994;DHT22;998;49.906;10.908;2023-11-21T15:34:04;10.90;99.90
1994;DHT22;998;49.906;10.908;2023-11-21T15:36:33;10.80;99.90
1994;DHT22;998;49.906;10.908;2023-11-21T15:39:00;11.20;99.90
1994;DHT22;998;49.906;10.908;2023-11-21T15:41:28;10.70;99.90
1994;DHT22;998;49.906;10.908;2023-11-21T15:43:55;10.70;99.90
1994;DHT22;998;49.906;10.908;2023-11-21T15:46:24;10.60;99.90
1994;DHT22;998;49.906;10.908;2023-11-21T15:48:51;10.60;99.90
1994;DHT22;998;49.906;10.908;2023-11-21T15:51:20;10.50;99.90
1994;DHT22;998;49.906;10.908;2023-11-21T15:53:47;10.50;99.90
1994;DHT22;998;49.906;10.908;2023-11-21T15:56:15;10.40;99.90
1994;DHT22;998;49.906;10.908;2023-11-21T15:58:43;10.40;99.90
1994;DHT22;998;49.906;10.908;2023-11-21T16:01:12;10.40;99.90
1994;DHT22;998;49.906;10.908;2023-11-21T16:03:41;10.40;99.90
1994;DHT22;998;49.906;10.908;2023-11-21T16:06:12;10.40;99.90
1994;DHT22;998;49.906;10.908;2023-11-21T16:08:41;10.40;99.90
1994;DHT22;998;49.906;10.908;2023-11-21T16:11:09;10.40;99.90
1994;DHT22;998;49.906;10.908;2023-11-21T16:13:36;10.40;99.90
1994;DHT22;998;49.906;10.908;2023-11-21T16:16:05;10.40;99.90
1994;DHT22;998;49.906;10.908;2023-11-21T16:18:32;10.40;99.90
1994;DHT22;998;49.906;10.908;2023-11-21T16:21:01;10.30;99.90
1994;DHT22;998;49.906;10.908;2023-11-21T16:23:28;10.40;99.90
1994;DHT22;998;49.906;10.908;2023-11-21T16:25:57;10.30;99.90